Terminal Aerodrome Forecast
Issued by NWS

Home | Current Version | Previous Version | Graphics & Text | Print | Product List | Glossary On
Versions: 1 2 3 4 5 6 7 8 9 10 11 12 13
000
FTUS43 KIWX 271100
TAFSBN
TAF
KSBN 271120Z 2712/2812 35010KT P6SM SCT025 BKN050
      TEMPO 2712/2715 -SHSN BKN025
     FM271500 34014G24KT P6SM BKN035
     FM272300 01005KT P6SM SCT250=

USA.gov is the U.S. government's official web portal to all federal, state and local government web resources and services.